createdAt,value
2019-05-29T00:00:40.625Z,98.23
2019-05-29T00:03:14.516Z,97.94
2019-05-29T00:05:49.758Z,97.92
2019-05-29T00:08:27.059Z,97.85
2019-05-29T00:10:58.911Z,98.01
2019-05-29T00:13:32.191Z,97.98
2019-05-29T00:16:04.146Z,98.09
2019-05-29T00:18:36.535Z,98.20
2019-05-29T00:21:11.674Z,98.39
2019-05-29T00:23:48.817Z,98.15
2019-05-29T00:26:24.867Z,98.14
2019-05-29T00:28:57.924Z,98.45
2019-05-29T00:31:31.972Z,98.60
2019-05-29T00:34:06.950Z,98.87
2019-05-29T00:36:40.973Z,98.77
2019-05-29T00:39:12.919Z,99.10
2019-05-29T00:41:45.075Z,98.82
2019-05-29T00:44:33.463Z,99.15
2019-05-29T00:46:55.598Z,99.45
2019-05-29T00:49:28.568Z,99.61
2019-05-29T00:52:01.636Z,99.51
2019-05-29T00:54:37.902Z,99.29
2019-05-29T00:57:11.175Z,99.03
2019-05-29T00:59:45.827Z,99.32
2019-05-29T01:02:23.799Z,99.69
2019-05-29T01:04:55.897Z,99.50
2019-05-29T01:07:29.238Z,99.88
2019-05-29T01:10:01.138Z,99.85
2019-05-29T01:12:36.089Z,99.56
2019-05-29T01:15:13.230Z,99.70
2019-05-29T01:17:47.767Z,99.10
2019-05-29T01:20:23.355Z,99.32
2019-05-29T01:22:57.218Z,99.06
2019-05-29T01:25:31.731Z,98.94
2019-05-29T01:28:03.934Z,99.46
2019-05-29T01:30:37.648Z,99.26
2019-05-29T01:33:10.330Z,99.31
2019-05-29T01:35:42.937Z,99.53
2019-05-29T01:38:17.227Z,99.54
2019-05-29T01:40:49.892Z,99.57
2019-05-29T01:43:23.563Z,99.52
2019-05-29T01:45:55.716Z,99.44
2019-05-29T01:48:27.795Z,99.24
2019-05-29T01:51:03.276Z,99.58
2019-05-29T01:53:36.551Z,100.00
2019-05-29T01:56:08.585Z,99.96
2019-05-29T01:58:41.429Z,100.00
2019-05-29T02:01:15.827Z,100.00
2019-05-29T02:03:50.012Z,100.00
2019-05-29T02:06:24.029Z,100.00
2019-05-29T02:08:59.881Z,100.00
2019-05-29T02:11:33.794Z,100.00
2019-05-29T02:14:07.930Z,100.00
2019-05-29T02:16:42.225Z,100.00
2019-05-29T02:19:15.711Z,100.00
2019-05-29T02:21:51.151Z,100.00
2019-05-29T02:24:25.454Z,100.00
2019-05-29T02:26:57.675Z,100.00
2019-05-29T02:29:30.770Z,100.00
2019-05-29T02:32:03.066Z,100.00
2019-05-29T02:34:40.125Z,99.86
2019-05-29T02:37:13.358Z,99.79
2019-05-29T02:39:45.642Z,99.83
2019-05-29T02:42:18.801Z,99.70
2019-05-29T02:44:52.472Z,99.70
2019-05-29T02:47:27.987Z,100.00
2019-05-29T02:50:00.769Z,100.00
2019-05-29T02:52:32.975Z,100.00
2019-05-29T02:55:09.238Z,100.00
2019-05-29T02:57:41.359Z,100.00
2019-05-29T03:00:15.152Z,100.00
2019-05-29T03:02:48.469Z,100.00
2019-05-29T03:05:23.844Z,100.00
2019-05-29T03:07:58.760Z,100.00
2019-05-29T03:10:30.905Z,100.00
2019-05-29T03:13:04.847Z,100.00
2019-05-29T03:15:36.872Z,100.00
2019-05-29T03:18:10.586Z,100.00
2019-05-29T03:20:43.066Z,100.00
2019-05-29T03:23:16.952Z,100.00
2019-05-29T03:25:52.579Z,100.00
2019-05-29T03:28:27.577Z,100.00
2019-05-29T03:31:01.133Z,100.00
2019-05-29T03:33:44.990Z,100.00
2019-05-29T03:36:12.232Z,100.00
2019-05-29T03:38:44.047Z,100.00
2019-05-29T03:41:17.097Z,100.00
2019-05-29T03:43:52.760Z,100.00
2019-05-29T03:46:31.647Z,100.00
2019-05-29T03:48:59.265Z,100.00
2019-05-29T03:51:34.480Z,100.00
2019-05-29T03:54:06.994Z,100.00
2019-05-29T03:56:39.927Z,100.00
2019-05-29T03:59:12.969Z,100.00
2019-05-29T04:01:44.691Z,100.00
2019-05-29T04:04:16.467Z,100.00
2019-05-29T04:06:49.555Z,100.00
2019-05-29T04:09:22.826Z,100.00
2019-05-29T04:11:56.871Z,100.00
2019-05-29T04:14:31.641Z,100.00
2019-05-29T04:17:08.980Z,100.00
2019-05-29T04:19:43.473Z,100.00
2019-05-29T04:22:18.282Z,100.00
2019-05-29T04:24:54.146Z,100.00
2019-05-29T04:27:30.619Z,100.00
2019-05-29T04:30:07.647Z,100.00
2019-05-29T04:32:40.855Z,100.00
2019-05-29T04:35:16.379Z,100.00
2019-05-29T04:37:49.103Z,97.58
2019-05-29T04:40:20.755Z,96.44
2019-05-29T04:42:55.477Z,97.24
2019-05-29T04:45:28.963Z,97.54
2019-05-29T04:48:03.926Z,96.46
2019-05-29T04:50:38.655Z,97.31
2019-05-29T04:53:12.832Z,97.38
2019-05-29T04:55:45.689Z,97.01
2019-05-29T04:58:18.958Z,97.00
2019-05-29T05:00:58.958Z,96.82
2019-05-29T05:03:28.969Z,96.96
2019-05-29T05:06:01.031Z,97.27
2019-05-29T05:08:35.430Z,97.49
2019-05-29T05:11:10.744Z,97.05
2019-05-29T05:13:46.711Z,97.21
2019-05-29T05:16:18.481Z,96.40
2019-05-29T05:18:50.831Z,95.79
2019-05-29T05:21:23.097Z,95.96
2019-05-29T05:23:57.866Z,95.87
2019-05-29T05:26:32.453Z,95.47
2019-05-29T05:29:08.471Z,95.63
2019-05-29T05:31:40.776Z,95.45
2019-05-29T05:34:14.791Z,96.18
2019-05-29T05:36:47.921Z,95.28
2019-05-29T05:39:20.669Z,94.91
2019-05-29T05:41:52.606Z,94.63
2019-05-29T05:44:27.754Z,95.25
2019-05-29T05:47:00.727Z,95.05
2019-05-29T05:49:33.271Z,94.30
2019-05-29T05:52:05.076Z,94.27
2019-05-29T05:54:39.491Z,94.53
2019-05-29T05:57:12.431Z,94.23
2019-05-29T05:59:45.924Z,93.89
2019-05-29T06:02:18.104Z,94.19
2019-05-29T06:04:50.674Z,93.89
2019-05-29T06:07:23.936Z,93.57
2019-05-29T06:09:56.922Z,93.90
2019-05-29T06:12:28.799Z,94.02
2019-05-29T06:15:02.212Z,94.55
2019-05-29T06:17:34.462Z,94.97
2019-05-29T06:20:08.902Z,93.96
2019-05-29T06:22:45.585Z,94.32
2019-05-29T06:25:19.459Z,95.64
2019-05-29T06:27:51.962Z,96.60
2019-05-29T06:30:26.643Z,97.53
2019-05-29T06:33:00.307Z,97.51
2019-05-29T06:35:34.529Z,98.09
2019-05-29T06:38:07.889Z,98.87
2019-05-29T06:40:42.177Z,99.79
2019-05-29T06:43:25.451Z,100.00
2019-05-29T06:45:59.310Z,100.00
2019-05-29T06:48:52.069Z,99.73
2019-05-29T06:51:09.300Z,100.00
2019-05-29T06:53:41.844Z,100.00
2019-05-29T06:56:15.226Z,100.00
2019-05-29T06:58:48.879Z,100.00
2019-05-29T07:01:22.528Z,100.00
2019-05-29T07:04:11.146Z,100.00
2019-05-29T07:06:34.916Z,100.00
2019-05-29T07:09:08.352Z,100.00
2019-05-29T07:11:41.327Z,100.00
2019-05-29T07:14:13.983Z,100.00
2019-05-29T07:16:55.570Z,100.00
2019-05-29T07:19:34.164Z,100.00
2019-05-29T07:21:55.162Z,100.00
2019-05-29T07:24:28.009Z,100.00
2019-05-29T07:27:02.216Z,100.00
2019-05-29T07:29:33.954Z,100.00
2019-05-29T07:32:06.774Z,100.00
2019-05-29T07:34:52.605Z,100.00
2019-05-29T07:37:14.909Z,97.82
2019-05-29T07:39:47.738Z,98.07
2019-05-29T07:42:21.186Z,97.63
2019-05-29T07:44:58.193Z,98.10
2019-05-29T07:47:31.400Z,97.40
2019-05-29T07:50:03.240Z,97.96
2019-05-29T07:52:35.295Z,97.34
2019-05-29T07:55:10.152Z,94.81
2019-05-29T07:57:42.836Z,94.54
2019-05-29T08:00:17.805Z,94.22
2019-05-29T08:02:51.102Z,93.00
2019-05-29T08:05:23.479Z,92.99
2019-05-29T08:07:56.382Z,92.87
2019-05-29T08:10:28.216Z,91.89
2019-05-29T08:13:00.422Z,91.45
2019-05-29T08:15:33.019Z,92.02
2019-05-29T08:18:05.899Z,90.91
2019-05-29T08:20:39.851Z,90.43
2019-05-29T08:23:12.199Z,89.56
2019-05-29T08:25:45.345Z,89.20
2019-05-29T08:28:17.446Z,89.89
2019-05-29T08:30:56.062Z,89.82
2019-05-29T08:33:26.164Z,89.92
2019-05-29T08:36:00.345Z,89.55
2019-05-29T08:38:32.240Z,90.67
2019-05-29T08:41:05.988Z,90.30
2019-05-29T08:43:39.102Z,90.24
2019-05-29T08:46:10.830Z,90.59
2019-05-29T08:48:43.766Z,90.50
2019-05-29T08:51:16.782Z,90.56
2019-05-29T08:53:51.868Z,90.23
2019-05-29T08:56:24.063Z,89.61
2019-05-29T08:58:57.343Z,90.56
2019-05-29T09:01:30.840Z,89.40
2019-05-29T09:04:07.584Z,88.91
2019-05-29T09:06:39.448Z,89.52
2019-05-29T09:09:12.600Z,88.94
2019-05-29T09:11:47.856Z,88.09
2019-05-29T09:14:21.768Z,87.76
2019-05-29T09:16:55.328Z,88.48
2019-05-29T09:19:27.897Z,88.25
2019-05-29T09:22:01.244Z,88.05
2019-05-29T09:24:35.697Z,86.79
2019-05-29T09:27:08.360Z,85.70
2019-05-29T09:29:41.276Z,85.54
2019-05-29T09:32:16.616Z,86.39
2019-05-29T09:34:49.164Z,87.19
2019-05-29T09:37:22.708Z,86.62
2019-05-29T09:39:55.898Z,87.41
2019-05-29T09:42:29.269Z,88.31
2019-05-29T09:45:01.335Z,88.85
2019-05-29T09:47:33.142Z,89.82
2019-05-29T09:50:05.951Z,89.91
2019-05-29T09:52:40.021Z,90.88
2019-05-29T09:55:13.725Z,91.06
2019-05-29T09:57:45.657Z,91.85
2019-05-29T10:00:20.911Z,91.98
2019-05-29T10:02:55.566Z,91.57
2019-05-29T10:05:28.021Z,92.37
2019-05-29T10:08:00.088Z,91.78
2019-05-29T10:10:33.186Z,92.72
2019-05-29T10:13:06.457Z,90.60
2019-05-29T10:15:39.558Z,91.05
2019-05-29T10:18:30.408Z,91.30
2019-05-29T10:20:46.452Z,90.53
2019-05-29T10:23:21.394Z,90.10
2019-05-29T10:25:56.435Z,89.69
2019-05-29T10:28:48.383Z,89.43
2019-05-29T10:31:05.363Z,89.69
2019-05-29T10:33:38.042Z,88.28
2019-05-29T10:36:10.053Z,87.52
2019-05-29T10:38:44.343Z,88.43
2019-05-29T10:41:18.797Z,87.38
2019-05-29T10:43:51.475Z,87.58
2019-05-29T10:46:25.680Z,88.64
2019-05-29T10:48:58.742Z,88.06
2019-05-29T10:51:31.874Z,89.11
2019-05-29T10:54:06.343Z,88.67
2019-05-29T10:56:38.119Z,88.60
2019-05-29T10:59:13.689Z,88.30
2019-05-29T11:01:47.081Z,88.60
2019-05-29T11:04:19.178Z,88.99
2019-05-29T11:06:52.514Z,89.33
2019-05-29T11:09:25.178Z,89.13
2019-05-29T11:11:57.781Z,88.43
2019-05-29T11:14:31.752Z,89.06
2019-05-29T11:17:04.519Z,88.32
2019-05-29T11:19:37.189Z,88.32
2019-05-29T11:22:25.333Z,89.01
2019-05-29T11:24:44.373Z,89.51
2019-05-29T11:27:16.006Z,87.72
2019-05-29T11:29:48.767Z,87.83
2019-05-29T11:32:20.739Z,88.83
2019-05-29T11:34:55.659Z,88.27
2019-05-29T11:37:28.394Z,88.06
2019-05-29T11:40:01.393Z,87.24
2019-05-29T11:42:33.615Z,88.22
2019-05-29T11:45:08.573Z,89.23
2019-05-29T11:47:42.457Z,89.89
2019-05-29T11:50:19.592Z,89.60
2019-05-29T11:52:50.316Z,89.51
2019-05-29T11:55:24.512Z,90.63
2019-05-29T11:58:00.100Z,90.56
2019-05-29T12:00:33.506Z,90.74
2019-05-29T12:03:07.461Z,91.43
2019-05-29T12:05:41.404Z,90.55
2019-05-29T12:08:13.746Z,91.06
2019-05-29T12:10:47.952Z,91.69
2019-05-29T12:13:19.753Z,91.47
2019-05-29T12:15:55.792Z,91.63
2019-05-29T12:18:29.685Z,91.08
2019-05-29T12:21:02.895Z,91.75
2019-05-29T12:23:36.432Z,91.44
2019-05-29T12:26:21.755Z,90.46
2019-05-29T12:28:43.363Z,89.79
2019-05-29T12:31:15.663Z,90.51
2019-05-29T12:33:48.903Z,90.14
2019-05-29T12:36:23.325Z,89.93
2019-05-29T12:38:57.976Z,88.17
2019-05-29T12:41:31.638Z,87.16
2019-05-29T12:44:06.234Z,87.89
2019-05-29T12:46:39.995Z,88.48
2019-05-29T12:49:12.650Z,89.74
2019-05-29T12:51:46.056Z,88.32
2019-05-29T12:54:18.236Z,89.12
2019-05-29T12:56:51.499Z,89.21
2019-05-29T12:59:23.605Z,89.24
2019-05-29T13:01:56.489Z,90.37
2019-05-29T13:04:28.368Z,91.05
2019-05-29T13:07:00.536Z,91.67
2019-05-29T13:09:33.861Z,90.16
2019-05-29T13:12:10.053Z,90.43
2019-05-29T13:14:41.811Z,89.36
2019-05-29T13:17:14.202Z,88.73
2019-05-29T13:19:46.191Z,89.18
2019-05-29T13:22:18.377Z,88.92
2019-05-29T13:24:52.858Z,89.38
2019-05-29T13:27:26.373Z,89.17
2019-05-29T13:30:01.718Z,89.15
2019-05-29T13:32:35.473Z,88.55
2019-05-29T13:35:08.073Z,89.01
2019-05-29T13:37:41.293Z,89.10
2019-05-29T13:40:15.331Z,89.00
2019-05-29T13:42:48.815Z,89.69
2019-05-29T13:45:22.146Z,89.40
2019-05-29T13:47:55.129Z,89.60
2019-05-29T13:50:30.040Z,90.52
2019-05-29T13:53:03.637Z,90.52
2019-05-29T13:55:37.674Z,91.20
2019-05-29T13:58:09.591Z,92.38
2019-05-29T14:00:42.730Z,92.52
2019-05-29T14:03:15.131Z,91.75
2019-05-29T14:05:48.657Z,93.19
2019-05-29T14:08:20.813Z,92.99
2019-05-29T14:10:52.498Z,92.48
2019-05-29T14:13:24.396Z,92.75
2019-05-29T14:15:56.664Z,92.15
2019-05-29T14:18:28.619Z,92.44
2019-05-29T14:21:00.934Z,92.09
2019-05-29T14:23:35.186Z,91.75
2019-05-29T14:26:11.090Z,90.73
2019-05-29T14:28:44.725Z,90.00
2019-05-29T14:31:17.434Z,89.87
2019-05-29T14:33:50.487Z,89.46
2019-05-29T14:36:23.436Z,88.76
2019-05-29T14:38:56.721Z,88.87
2019-05-29T14:41:30.798Z,88.54
2019-05-29T14:44:03.745Z,88.05
2019-05-29T14:46:39.014Z,87.87
2019-05-29T14:49:13.531Z,87.86
2019-05-29T14:51:49.785Z,87.86
2019-05-29T14:54:40.548Z,86.41
2019-05-29T14:56:58.915Z,86.86
2019-05-29T14:59:32.711Z,85.81
2019-05-29T15:02:14.537Z,86.22
2019-05-29T15:04:40.434Z,85.51
2019-05-29T15:07:14.033Z,84.49
2019-05-29T15:09:46.518Z,84.95
2019-05-29T15:12:19.713Z,85.33
2019-05-29T15:14:53.080Z,84.48
2019-05-29T15:17:28.501Z,85.19
2019-05-29T15:20:02.342Z,84.73
2019-05-29T15:22:37.376Z,84.16
2019-05-29T15:25:19.975Z,83.87
2019-05-29T15:27:49.187Z,83.97
2019-05-29T15:30:24.118Z,83.75
2019-05-29T15:32:58.535Z,83.67
2019-05-29T15:35:30.857Z,83.38
2019-05-29T15:38:06.556Z,83.46
2019-05-29T15:40:43.231Z,83.98
2019-05-29T15:43:17.199Z,84.05
2019-05-29T15:45:50.417Z,83.36
2019-05-29T15:48:25.218Z,83.70
2019-05-29T15:50:57.345Z,83.23
2019-05-29T15:53:29.597Z,82.87
2019-05-29T15:56:18.198Z,83.01
2019-05-29T15:58:38.756Z,82.45
2019-05-29T16:01:11.674Z,82.71
2019-05-29T16:03:48.788Z,81.02
2019-05-29T16:06:22.351Z,81.55
2019-05-29T16:08:57.970Z,82.01
2019-05-29T16:11:30.444Z,82.33
2019-05-29T16:14:03.822Z,82.37
2019-05-29T16:16:35.849Z,82.41
2019-05-29T16:19:08.571Z,82.14
2019-05-29T16:21:40.284Z,81.14
2019-05-29T16:24:12.897Z,81.08
2019-05-29T16:26:46.247Z,80.93
2019-05-29T16:29:20.169Z,80.92
2019-05-29T16:31:53.242Z,80.86
2019-05-29T16:34:26.630Z,79.50
2019-05-29T16:36:58.634Z,79.42
2019-05-29T16:39:43.236Z,79.60
2019-05-29T16:42:24.481Z,79.65
2019-05-29T16:45:01.707Z,79.58
2019-05-29T16:47:45.675Z,78.85
2019-05-29T16:50:23.832Z,78.94
2019-05-29T16:52:56.455Z,79.01
2019-05-29T16:55:28.139Z,78.68
2019-05-29T16:58:04.212Z,78.82
2019-05-29T17:00:36.608Z,78.75
2019-05-29T17:03:09.325Z,78.98
2019-05-29T17:05:42.717Z,79.61
2019-05-29T17:08:16.029Z,79.78
2019-05-29T17:10:53.885Z,79.91
2019-05-29T17:13:27.467Z,79.69
2019-05-29T17:16:00.066Z,79.92
2019-05-29T17:18:33.679Z,80.32
2019-05-29T17:21:06.117Z,80.22
2019-05-29T17:23:41.525Z,79.52
2019-05-29T17:26:14.679Z,79.87
2019-05-29T17:28:47.782Z,78.88
2019-05-29T17:31:21.224Z,79.21
2019-05-29T17:33:56.617Z,80.50
2019-05-29T17:36:31.576Z,80.26
2019-05-29T17:39:07.448Z,80.06
2019-05-29T17:41:40.794Z,80.58
2019-05-29T17:44:15.433Z,80.33
2019-05-29T17:46:47.860Z,81.05
2019-05-29T17:49:22.571Z,81.31
2019-05-29T17:51:53.551Z,81.59
2019-05-29T17:54:27.767Z,80.27
2019-05-29T17:57:03.035Z,81.29
2019-05-29T17:59:35.337Z,81.59
2019-05-29T18:02:07.020Z,82.33
2019-05-29T18:04:39.498Z,81.48
2019-05-29T18:07:13.825Z,81.14
2019-05-29T18:09:45.925Z,80.67
2019-05-29T18:12:19.053Z,80.75
2019-05-29T18:14:53.984Z,80.78
2019-05-29T18:17:27.752Z,79.74
2019-05-29T18:20:00.520Z,80.25
2019-05-29T18:22:33.938Z,79.93
2019-05-29T18:25:10.496Z,79.96
2019-05-29T18:27:44.609Z,79.89
2019-05-29T18:30:20.211Z,80.01
2019-05-29T18:32:53.056Z,80.02
2019-05-29T18:35:27.022Z,79.85
2019-05-29T18:38:00.570Z,80.17
2019-05-29T18:40:32.602Z,80.47
2019-05-29T18:43:07.099Z,80.08
2019-05-29T18:45:41.331Z,79.80
2019-05-29T18:48:14.623Z,80.22
2019-05-29T18:50:46.322Z,80.46
2019-05-29T18:53:20.715Z,80.30
2019-05-29T18:55:52.798Z,80.18
2019-05-29T18:58:24.611Z,80.15
2019-05-29T19:00:58.682Z,79.77
2019-05-29T19:03:32.591Z,79.15
2019-05-29T19:06:05.322Z,78.30
2019-05-29T19:08:38.877Z,78.24
2019-05-29T19:11:10.812Z,77.93
2019-05-29T19:13:45.610Z,77.98
2019-05-29T19:16:18.970Z,78.01
2019-05-29T19:18:51.901Z,77.81
2019-05-29T19:21:24.558Z,77.60
2019-05-29T19:23:56.555Z,77.34
2019-05-29T19:26:33.773Z,77.54
2019-05-29T19:29:04.344Z,77.59
2019-05-29T19:31:37.038Z,78.07
2019-05-29T19:34:09.441Z,78.53
2019-05-29T19:36:43.912Z,78.68
2019-05-29T19:39:19.146Z,79.16
2019-05-29T19:41:51.843Z,79.05
2019-05-29T19:44:24.138Z,79.27
2019-05-29T19:46:58.900Z,79.68
2019-05-29T19:49:31.160Z,79.71
2019-05-29T19:52:04.633Z,79.37
2019-05-29T19:54:39.014Z,79.16
2019-05-29T19:57:11.454Z,79.51
2019-05-29T19:59:47.639Z,79.06
2019-05-29T20:02:24.382Z,79.29
2019-05-29T20:05:01.649Z,78.73
2019-05-29T20:07:37.557Z,78.71
2019-05-29T20:10:12.969Z,78.32
2019-05-29T20:12:46.701Z,78.15
2019-05-29T20:15:20.605Z,79.13
2019-05-29T20:17:57.004Z,79.13
2019-05-29T20:20:30.348Z,79.33
2019-05-29T20:23:04.580Z,79.55
2019-05-29T20:25:37.027Z,80.00
2019-05-29T20:28:11.387Z,79.84
2019-05-29T20:30:45.596Z,80.52
2019-05-29T20:33:20.498Z,80.04
2019-05-29T20:35:52.710Z,80.04
2019-05-29T20:38:26.675Z,81.27
2019-05-29T20:40:59.378Z,81.23
2019-05-29T20:43:31.630Z,81.41
2019-05-29T20:46:05.873Z,81.40
2019-05-29T20:48:39.634Z,81.28
2019-05-29T20:51:11.293Z,81.85
2019-05-29T20:53:46.517Z,82.09
2019-05-29T20:56:19.606Z,81.65
2019-05-29T20:58:53.378Z,82.02
2019-05-29T21:01:25.891Z,83.32
2019-05-29T21:04:00.515Z,82.65
2019-05-29T21:06:34.508Z,83.10
2019-05-29T21:09:09.598Z,83.12
2019-05-29T21:11:43.999Z,82.24
2019-05-29T21:14:19.600Z,82.80
2019-05-29T21:16:52.989Z,82.46
2019-05-29T21:19:25.962Z,82.33
2019-05-29T21:21:59.005Z,81.63
2019-05-29T21:24:34.546Z,82.36
2019-05-29T21:27:09.016Z,80.53
2019-05-29T21:29:45.531Z,80.12
2019-05-29T21:32:20.319Z,79.97
2019-05-29T21:34:53.394Z,79.99
2019-05-29T21:37:26.776Z,79.91
2019-05-29T21:40:00.419Z,79.65
2019-05-29T21:42:32.249Z,79.79
2019-05-29T21:45:06.978Z,81.60
2019-05-29T21:47:41.509Z,82.32
2019-05-29T21:50:15.371Z,82.75
2019-05-29T21:52:47.673Z,82.83
2019-05-29T21:55:22.554Z,82.83
2019-05-29T21:57:57.336Z,83.02
2019-05-29T22:00:40.081Z,83.07
2019-05-29T22:03:13.994Z,83.39
2019-05-29T22:05:49.137Z,83.38
2019-05-29T22:08:22.577Z,83.12
2019-05-29T22:10:55.579Z,83.48
2019-05-29T22:13:27.394Z,83.53
2019-05-29T22:16:01.082Z,83.36
2019-05-29T22:18:36.540Z,84.60
2019-05-29T22:21:11.568Z,84.27
2019-05-29T22:23:43.705Z,85.10
2019-05-29T22:26:15.327Z,85.28
2019-05-29T22:28:48.725Z,86.40
2019-05-29T22:31:21.372Z,87.20
2019-05-29T22:33:55.418Z,86.49
2019-05-29T22:36:28.632Z,86.36
2019-05-29T22:39:01.834Z,86.89
2019-05-29T22:41:35.685Z,87.00
2019-05-29T22:44:07.554Z,87.76
2019-05-29T22:46:41.446Z,88.29
2019-05-29T22:49:14.487Z,88.62
2019-05-29T22:51:47.521Z,87.34
2019-05-29T22:54:22.400Z,87.43
2019-05-29T22:56:57.996Z,88.12
2019-05-29T22:59:33.048Z,87.68
2019-05-29T23:02:05.089Z,87.56
2019-05-29T23:04:37.978Z,87.46
2019-05-29T23:07:14.187Z,87.72
2019-05-29T23:09:49.444Z,88.06
2019-05-29T23:12:23.910Z,87.69
2019-05-29T23:14:56.358Z,87.39
2019-05-29T23:17:30.773Z,86.76
2019-05-29T23:20:04.159Z,86.58
2019-05-29T23:22:39.642Z,86.64
2019-05-29T23:25:11.800Z,86.50
2019-05-29T23:27:46.121Z,86.36
2019-05-29T23:30:19.664Z,86.46
2019-05-29T23:32:57.190Z,86.73
2019-05-29T23:35:28.721Z,86.93
2019-05-29T23:38:03.354Z,86.96
2019-05-29T23:40:35.789Z,86.77
2019-05-29T23:43:07.744Z,87.76
2019-05-29T23:45:40.218Z,86.65
2019-05-29T23:48:13.333Z,87.50
2019-05-29T23:50:47.070Z,87.58
2019-05-29T23:53:19.238Z,87.88
2019-05-29T23:55:51.905Z,87.38
2019-05-29T23:58:25.127Z,87.76
